sensor_id;sensor_type;location;lat;lon;timestamp;temperature;humidity
11583;DHT22;34299;50.820;4.548;2024-03-08T00:02:17;4.80;99.90
11583;DHT22;34299;50.820;4.548;2024-03-08T00:04:45;4.90;99.90
11583;DHT22;34299;50.820;4.548;2024-03-08T00:07:12;4.80;99.90
11583;DHT22;34299;50.820;4.548;2024-03-08T00:09:40;4.90;99.90
11583;DHT22;34299;50.820;4.548;2024-03-08T00:12:07;4.70;99.90
11583;DHT22;34299;50.820;4.548;2024-03-08T00:14:34;4.70;99.90
11583;DHT22;34299;50.820;4.548;2024-03-08T00:17:03;4.70;99.90
11583;DHT22;34299;50.820;4.548;2024-03-08T00:19:31;4.80;99.90
11583;DHT22;34299;50.820;4.548;2024-03-08T00:21:58;4.60;99.90
11583;DHT22;34299;50.820;4.548;2024-03-08T00:24:26;4.40;99.90
11583;DHT22;34299;50.820;4.548;2024-03-08T00:26:54;4.50;99.90
11583;DHT22;34299;50.820;4.548;2024-03-08T00:29:21;4.50;99.90
11583;DHT22;34299;50.820;4.548;2024-03-08T00:31:48;4.50;99.90
11583;DHT22;34299;50.820;4.548;2024-03-08T00:34:15;4.40;99.90
11583;DHT22;34299;50.820;4.548;2024-03-08T00:36:44;4.30;99.90
11583;DHT22;34299;50.820;4.548;2024-03-08T00:39:11;4.10;99.90
11583;DHT22;34299;50.820;4.548;2024-03-08T00:41:38;4.50;99.90
11583;DHT22;34299;50.820;4.548;2024-03-08T00:44:05;4.30;99.90
11583;DHT22;34299;50.820;4.548;2024-03-08T00:46:32;4.20;99.90
11583;DHT22;34299;50.820;4.548;2024-03-08T00:48:59;4.20;99.90
11583;DHT22;34299;50.820;4.548;2024-03-08T00:51:27;4.30;99.90
11583;DHT22;34299;50.820;4.548;2024-03-08T00:53:55;4.10;99.90
11583;DHT22;34299;50.820;4.548;2024-03-08T00:56:22;4.20;99.90
11583;DHT22;34299;50.820;4.548;2024-03-08T00:58:50;4.10;99.90
11583;DHT22;34299;50.820;4.548;2024-03-08T01:01:18;4.10;99.90
11583;DHT22;34299;50.820;4.548;2024-03-08T01:03:46;4.00;99.90
11583;DHT22;34299;50.820;4.548;2024-03-08T01:06:14;3.90;99.90
11583;DHT22;34299;50.820;4.548;2024-03-08T01:08:41;3.80;99.90
11583;DHT22;34299;50.820;4.548;2024-03-08T01:11:10;4.00;99.90
11583;DHT22;34299;50.820;4.548;2024-03-08T01:13:37;3.90;99.90
11583;DHT22;34299;50.820;4.548;2024-03-08T01:16:04;3.80;99.90
11583;DHT22;34299;50.820;4.548;2024-03-08T01:18:32;4.00;99.90
11583;DHT22;34299;50.820;4.548;2024-03-08T01:20:59;3.90;99.90
11583;DHT22;34299;50.820;4.548;2024-03-08T01:23:25;3.90;99.90
11583;DHT22;34299;50.820;4.548;2024-03-08T01:25:52;4.00;99.90
11583;DHT22;34299;50.820;4.548;2024-03-08T01:28:24;4.00;99.90
11583;DHT22;34299;50.820;4.548;2024-03-08T01:30:51;3.70;99.90
11583;DHT22;34299;50.820;4.548;2024-03-08T01:33:21;3.90;99.90
11583;DHT22;34299;50.820;4.548;2024-03-08T01:35:48;3.90;99.90
11583;DHT22;34299;50.820;4.548;2024-03-08T01:38:15;3.90;99.90
11583;DHT22;34299;50.820;4.548;2024-03-08T01:40:42;3.90;99.90
11583;DHT22;34299;50.820;4.548;2024-03-08T01:43:19;3.80;99.90
11583;DHT22;34299;50.820;4.548;2024-03-08T01:45:48;3.70;99.90
11583;DHT22;34299;50.820;4.548;2024-03-08T01:48:15;3.80;99.90
11583;DHT22;34299;50.820;4.548;2024-03-08T01:50:43;3.60;99.90
11583;DHT22;34299;50.820;4.548;2024-03-08T01:53:11;3.70;99.90
11583;DHT22;34299;50.820;4.548;2024-03-08T01:55:38;3.60;99.90
11583;DHT22;34299;50.820;4.548;2024-03-08T01:58:06;3.70;99.90
11583;DHT22;34299;50.820;4.548;2024-03-08T02:00:33;3.70;99.90
11583;DHT22;34299;50.820;4.548;2024-03-08T02:03:02;3.50;99.90
11583;DHT22;34299;50.820;4.548;2024-03-08T02:05:29;3.50;99.90
11583;DHT22;34299;50.820;4.548;2024-03-08T02:07:57;3.50;99.90
11583;DHT22;34299;50.820;4.548;2024-03-08T02:10:24;3.60;99.90
11583;DHT22;34299;50.820;4.548;2024-03-08T02:12:51;3.50;99.90
11583;DHT22;34299;50.820;4.548;2024-03-08T02:15:18;3.60;99.90
11583;DHT22;34299;50.820;4.548;2024-03-08T02:17:46;3.60;99.90
11583;DHT22;34299;50.820;4.548;2024-03-08T02:20:14;3.60;99.90
11583;DHT22;34299;50.820;4.548;2024-03-08T02:22:43;3.50;99.90
11583;DHT22;34299;50.820;4.548;2024-03-08T02:25:10;3.60;99.90
11583;DHT22;34299;50.820;4.548;2024-03-08T02:27:38;3.30;99.90
11583;DHT22;34299;50.820;4.548;2024-03-08T02:30:06;3.10;99.90
11583;DHT22;34299;50.820;4.548;2024-03-08T02:32:33;3.30;99.90
11583;DHT22;34299;50.820;4.548;2024-03-08T02:35:00;3.50;99.90
11583;DHT22;34299;50.820;4.548;2024-03-08T02:37:27;3.30;99.90
11583;DHT22;34299;50.820;4.548;2024-03-08T02:39:56;3.30;99.90
11583;DHT22;34299;50.820;4.548;2024-03-08T02:42:23;3.10;99.90
11583;DHT22;34299;50.820;4.548;2024-03-08T02:44:50;3.10;99.90
11583;DHT22;34299;50.820;4.548;2024-03-08T02:47:17;3.00;99.90
11583;DHT22;34299;50.820;4.548;2024-03-08T02:49:46;3.00;99.90
11583;DHT22;34299;50.820;4.548;2024-03-08T02:52:13;3.00;99.90
11583;DHT22;34299;50.820;4.548;2024-03-08T02:54:42;3.20;99.90
11583;DHT22;34299;50.820;4.548;2024-03-08T02:57:10;3.10;99.90
11583;DHT22;34299;50.820;4.548;2024-03-08T02:59:37;3.20;99.90
11583;DHT22;34299;50.820;4.548;2024-03-08T03:02:05;3.10;99.90
11583;DHT22;34299;50.820;4.548;2024-03-08T03:04:33;3.20;99.90
11583;DHT22;34299;50.820;4.548;2024-03-08T03:07:01;3.10;99.90
11583;DHT22;34299;50.820;4.548;2024-03-08T03:09:33;3.00;99.90
11583;DHT22;34299;50.820;4.548;2024-03-08T03:12:00;3.00;99.90
11583;DHT22;34299;50.820;4.548;2024-03-08T03:14:29;3.00;99.90
11583;DHT22;34299;50.820;4.548;2024-03-08T03:16:56;3.10;99.90
11583;DHT22;34299;50.820;4.548;2024-03-08T03:19:23;3.00;99.90
11583;DHT22;34299;50.820;4.548;2024-03-08T03:21:50;3.00;99.90
11583;DHT22;34299;50.820;4.548;2024-03-08T03:24:18;3.00;99.90
11583;DHT22;34299;50.820;4.548;2024-03-08T03:26:46;2.90;99.90
11583;DHT22;34299;50.820;4.548;2024-03-08T03:29:15;2.90;99.90
11583;DHT22;34299;50.820;4.548;2024-03-08T03:31:44;2.90;99.90
11583;DHT22;34299;50.820;4.548;2024-03-08T03:34:12;2.80;99.90
11583;DHT22;34299;50.820;4.548;2024-03-08T03:36:39;2.80;99.90
11583;DHT22;34299;50.820;4.548;2024-03-08T03:39:08;2.80;99.90
11583;DHT22;34299;50.820;4.548;2024-03-08T03:41:36;2.70;99.90
11583;DHT22;34299;50.820;4.548;2024-03-08T03:44:04;2.70;99.90
11583;DHT22;34299;50.820;4.548;2024-03-08T03:46:32;2.70;99.90
11583;DHT22;34299;50.820;4.548;2024-03-08T03:49:00;2.90;99.90
11583;DHT22;34299;50.820;4.548;2024-03-08T03:51:29;2.80;99.90
11583;DHT22;34299;50.820;4.548;2024-03-08T03:53:56;2.80;99.90
11583;DHT22;34299;50.820;4.548;2024-03-08T03:56:25;2.70;99.90
11583;DHT22;34299;50.820;4.548;2024-03-08T03:58:53;2.60;99.90
11583;DHT22;34299;50.820;4.548;2024-03-08T04:01:20;2.60;99.90
11583;DHT22;34299;50.820;4.548;2024-03-08T04:03:47;2.60;99.90
11583;DHT22;34299;50.820;4.548;2024-03-08T04:06:15;2.60;99.90
11583;DHT22;34299;50.820;4.548;2024-03-08T04:08:42;2.50;99.90
11583;DHT22;34299;50.820;4.548;2024-03-08T04:11:09;2.60;99.90
11583;DHT22;34299;50.820;4.548;2024-03-08T04:13:36;2.40;99.90
11583;DHT22;34299;50.820;4.548;2024-03-08T04:16:04;2.50;99.90
11583;DHT22;34299;50.820;4.548;2024-03-08T04:18:34;2.70;99.90
11583;DHT22;34299;50.820;4.548;2024-03-08T04:21:04;2.40;99.90
11583;DHT22;34299;50.820;4.548;2024-03-08T04:23:33;2.50;99.90
11583;DHT22;34299;50.820;4.548;2024-03-08T04:26:01;2.40;99.90
11583;DHT22;34299;50.820;4.548;2024-03-08T04:28:29;2.40;99.90
11583;DHT22;34299;50.820;4.548;2024-03-08T04:30:56;2.00;99.90
11583;DHT22;34299;50.820;4.548;2024-03-08T04:33:26;2.50;99.90
11583;DHT22;34299;50.820;4.548;2024-03-08T04:35:53;2.50;99.90
11583;DHT22;34299;50.820;4.548;2024-03-08T04:38:20;2.50;99.90
11583;DHT22;34299;50.820;4.548;2024-03-08T04:40:49;2.50;99.90
11583;DHT22;34299;50.820;4.548;2024-03-08T04:43:17;2.40;99.90
11583;DHT22;34299;50.820;4.548;2024-03-08T04:45:46;2.60;99.90
11583;DHT22;34299;50.820;4.548;2024-03-08T04:48:14;2.50;99.90
11583;DHT22;34299;50.820;4.548;2024-03-08T04:50:41;2.60;99.90
11583;DHT22;34299;50.820;4.548;2024-03-08T04:53:08;2.70;99.90
11583;DHT22;34299;50.820;4.548;2024-03-08T04:55:35;2.70;99.90
11583;DHT22;34299;50.820;4.548;2024-03-08T04:58:04;2.70;99.90
11583;DHT22;34299;50.820;4.548;2024-03-08T05:00:32;2.60;99.90
11583;DHT22;34299;50.820;4.548;2024-03-08T05:02:59;2.40;99.90
11583;DHT22;34299;50.820;4.548;2024-03-08T05:05:26;2.50;99.90
11583;DHT22;34299;50.820;4.548;2024-03-08T05:07:54;2.40;99.90
11583;DHT22;34299;50.820;4.548;2024-03-08T05:10:21;2.60;99.90
11583;DHT22;34299;50.820;4.548;2024-03-08T05:12:48;2.40;99.90
11583;DHT22;34299;50.820;4.548;2024-03-08T05:15:17;2.20;99.90
11583;DHT22;34299;50.820;4.548;2024-03-08T05:17:46;2.20;99.90
11583;DHT22;34299;50.820;4.548;2024-03-08T05:20:13;2.30;99.90
11583;DHT22;34299;50.820;4.548;2024-03-08T05:22:40;2.20;99.90
11583;DHT22;34299;50.820;4.548;2024-03-08T05:25:08;2.20;99.90
11583;DHT22;34299;50.820;4.548;2024-03-08T05:27:36;2.30;99.90
11583;DHT22;34299;50.820;4.548;2024-03-08T05:30:03;2.30;99.90
11583;DHT22;34299;50.820;4.548;2024-03-08T05:32:32;2.10;99.90
11583;DHT22;34299;50.820;4.548;2024-03-08T05:34:59;2.20;99.90
11583;DHT22;34299;50.820;4.548;2024-03-08T05:37:26;2.20;99.90
11583;DHT22;34299;50.820;4.548;2024-03-08T05:39:53;2.10;99.90
11583;DHT22;34299;50.820;4.548;2024-03-08T05:42:20;2.00;99.90
11583;DHT22;34299;50.820;4.548;2024-03-08T05:44:47;2.00;99.90
11583;DHT22;34299;50.820;4.548;2024-03-08T05:47:15;2.10;99.90
11583;DHT22;34299;50.820;4.548;2024-03-08T05:49:45;2.00;99.90
11583;DHT22;34299;50.820;4.548;2024-03-08T05:52:12;2.00;99.90
11583;DHT22;34299;50.820;4.548;2024-03-08T05:54:40;1.90;99.90
11583;DHT22;34299;50.820;4.548;2024-03-08T05:57:08;2.00;99.90
11583;DHT22;34299;50.820;4.548;2024-03-08T05:59:35;2.10;99.90
11583;DHT22;34299;50.820;4.548;2024-03-08T06:02:02;2.00;99.90
11583;DHT22;34299;50.820;4.548;2024-03-08T06:04:30;2.10;99.90
11583;DHT22;34299;50.820;4.548;2024-03-08T06:06:58;2.10;99.90
11583;DHT22;34299;50.820;4.548;2024-03-08T06:09:25;2.10;99.90
11583;DHT22;34299;50.820;4.548;2024-03-08T06:11:52;2.20;99.90
11583;DHT22;34299;50.820;4.548;2024-03-08T06:14:19;2.00;99.90
11583;DHT22;34299;50.820;4.548;2024-03-08T06:16:47;2.00;99.90
11583;DHT22;34299;50.820;4.548;2024-03-08T06:19:15;1.90;99.90
11583;DHT22;34299;50.820;4.548;2024-03-08T06:21:42;1.90;99.90
11583;DHT22;34299;50.820;4.548;2024-03-08T06:24:11;1.80;99.90
11583;DHT22;34299;50.820;4.548;2024-03-08T06:26:38;2.10;99.90
11583;DHT22;34299;50.820;4.548;2024-03-08T06:29:05;2.10;99.90
11583;DHT22;34299;50.820;4.548;2024-03-08T06:31:32;2.10;99.90
11583;DHT22;34299;50.820;4.548;2024-03-08T06:34:00;2.10;99.90
11583;DHT22;34299;50.820;4.548;2024-03-08T06:36:27;1.90;99.90
11583;DHT22;34299;50.820;4.548;2024-03-08T06:38:54;2.20;99.90
11583;DHT22;34299;50.820;4.548;2024-03-08T06:41:24;2.20;99.90
11583;DHT22;34299;50.820;4.548;2024-03-08T06:43:51;2.20;99.90
11583;DHT22;34299;50.820;4.548;2024-03-08T06:46:22;2.20;99.90
11583;DHT22;34299;50.820;4.548;2024-03-08T06:48:49;2.20;99.90
11583;DHT22;34299;50.820;4.548;2024-03-08T06:51:16;2.10;99.90
11583;DHT22;34299;50.820;4.548;2024-03-08T06:53:44;2.30;99.90
11583;DHT22;34299;50.820;4.548;2024-03-08T06:56:11;2.30;99.90
11583;DHT22;34299;50.820;4.548;2024-03-08T06:58:39;2.30;99.90
11583;DHT22;34299;50.820;4.548;2024-03-08T07:01:06;2.30;99.90
11583;DHT22;34299;50.820;4.548;2024-03-08T07:03:41;2.40;99.90
11583;DHT22;34299;50.820;4.548;2024-03-08T07:06:10;2.40;99.90
11583;DHT22;34299;50.820;4.548;2024-03-08T07:08:37;2.40;99.90
11583;DHT22;34299;50.820;4.548;2024-03-08T07:11:04;2.30;99.90
11583;DHT22;34299;50.820;4.548;2024-03-08T07:13:31;2.50;99.90
11583;DHT22;34299;50.820;4.548;2024-03-08T07:15:59;2.70;99.90
11583;DHT22;34299;50.820;4.548;2024-03-08T07:18:26;2.80;99.90
11583;DHT22;34299;50.820;4.548;2024-03-08T07:20:55;2.70;99.90
11583;DHT22;34299;50.820;4.548;2024-03-08T07:23:23;2.80;99.90
11583;DHT22;34299;50.820;4.548;2024-03-08T07:26:07;2.90;99.90
11583;DHT22;34299;50.820;4.548;2024-03-08T07:28:34;3.00;99.90
11583;DHT22;34299;50.820;4.548;2024-03-08T07:31:09;3.00;99.90
11583;DHT22;34299;50.820;4.548;2024-03-08T07:33:46;2.90;99.90
11583;DHT22;34299;50.820;4.548;2024-03-08T07:36:16;2.90;99.90
11583;DHT22;34299;50.820;4.548;2024-03-08T07:38:43;3.00;99.90
11583;DHT22;34299;50.820;4.548;2024-03-08T07:41:12;3.10;99.90
11583;DHT22;34299;50.820;4.548;2024-03-08T07:43:39;3.10;99.90
11583;DHT22;34299;50.820;4.548;2024-03-08T07:46:06;3.20;99.90
11583;DHT22;34299;50.820;4.548;2024-03-08T07:48:37;3.20;99.90
11583;DHT22;34299;50.820;4.548;2024-03-08T07:51:05;3.20;99.90
11583;DHT22;34299;50.820;4.548;2024-03-08T07:53:35;3.30;99.90
11583;DHT22;34299;50.820;4.548;2024-03-08T07:56:02;3.40;99.90
11583;DHT22;34299;50.820;4.548;2024-03-08T07:58:30;3.50;99.90
11583;DHT22;34299;50.820;4.548;2024-03-08T08:00:57;3.50;99.90
11583;DHT22;34299;50.820;4.548;2024-03-08T08:03:24;3.70;99.90
11583;DHT22;34299;50.820;4.548;2024-03-08T08:05:54;3.70;99.90
11583;DHT22;34299;50.820;4.548;2024-03-08T08:08:21;3.90;99.90
11583;DHT22;34299;50.820;4.548;2024-03-08T08:10:48;4.00;99.90
11583;DHT22;34299;50.820;4.548;2024-03-08T08:13:15;4.10;99.90
11583;DHT22;34299;50.820;4.548;2024-03-08T08:15:43;4.10;99.90
11583;DHT22;34299;50.820;4.548;2024-03-08T08:18:11;3.90;99.90
11583;DHT22;34299;50.820;4.548;2024-03-08T08:20:39;4.30;99.90
11583;DHT22;34299;50.820;4.548;2024-03-08T08:23:08;4.10;99.90
11583;DHT22;34299;50.820;4.548;2024-03-08T08:25:37;4.10;99.90
11583;DHT22;34299;50.820;4.548;2024-03-08T08:28:05;4.30;99.90
11583;DHT22;34299;50.820;4.548;2024-03-08T08:30:32;4.40;99.90
11583;DHT22;34299;50.820;4.548;2024-03-08T08:32:59;4.50;99.90
11583;DHT22;34299;50.820;4.548;2024-03-08T08:35:26;4.50;99.90
11583;DHT22;34299;50.820;4.548;2024-03-08T08:37:54;4.70;99.90
11583;DHT22;34299;50.820;4.548;2024-03-08T08:40:23;4.60;99.90
11583;DHT22;34299;50.820;4.548;2024-03-08T08:42:50;4.90;99.90
11583;DHT22;34299;50.820;4.548;2024-03-08T08:45:18;5.20;99.90
11583;DHT22;34299;50.820;4.548;2024-03-08T08:47:45;4.90;99.90
11583;DHT22;34299;50.820;4.548;2024-03-08T08:50:13;5.00;99.90
11583;DHT22;34299;50.820;4.548;2024-03-08T08:52:40;5.10;99.90
11583;DHT22;34299;50.820;4.548;2024-03-08T08:55:09;5.20;99.90
11583;DHT22;34299;50.820;4.548;2024-03-08T08:57:41;5.40;99.90
11583;DHT22;34299;50.820;4.548;2024-03-08T09:00:09;5.70;99.90
11583;DHT22;34299;50.820;4.548;2024-03-08T09:02:36;5.90;99.90
11583;DHT22;34299;50.820;4.548;2024-03-08T09:05:05;5.90;99.90
11583;DHT22;34299;50.820;4.548;2024-03-08T09:07:33;5.80;99.90
11583;DHT22;34299;50.820;4.548;2024-03-08T09:10:00;6.00;99.90
11583;DHT22;34299;50.820;4.548;2024-03-08T09:12:28;5.90;99.90
11583;DHT22;34299;50.820;4.548;2024-03-08T09:14:56;6.10;99.90
11583;DHT22;34299;50.820;4.548;2024-03-08T09:17:23;6.20;99.90
11583;DHT22;34299;50.820;4.548;2024-03-08T09:19:51;6.30;99.90
11583;DHT22;34299;50.820;4.548;2024-03-08T09:22:18;6.50;99.90
11583;DHT22;34299;50.820;4.548;2024-03-08T09:24:45;6.50;99.90
11583;DHT22;34299;50.820;4.548;2024-03-08T09:27:12;6.30;99.90
11583;DHT22;34299;50.820;4.548;2024-03-08T09:29:39;6.60;99.90
11583;DHT22;34299;50.820;4.548;2024-03-08T09:32:07;6.80;99.90
11583;DHT22;34299;50.820;4.548;2024-03-08T09:34:34;6.80;99.90
11583;DHT22;34299;50.820;4.548;2024-03-08T09:37:02;6.80;99.90
11583;DHT22;34299;50.820;4.548;2024-03-08T09:39:30;7.00;99.90
11583;DHT22;34299;50.820;4.548;2024-03-08T09:41:57;6.90;99.90
11583;DHT22;34299;50.820;4.548;2024-03-08T09:44:24;7.10;99.90
11583;DHT22;34299;50.820;4.548;2024-03-08T09:46:54;7.20;99.90
11583;DHT22;34299;50.820;4.548;2024-03-08T09:49:25;7.30;99.90
11583;DHT22;34299;50.820;4.548;2024-03-08T09:51:52;7.40;99.90
11583;DHT22;34299;50.820;4.548;2024-03-08T09:54:20;7.50;99.90
11583;DHT22;34299;50.820;4.548;2024-03-08T09:56:49;7.40;99.90
11583;DHT22;34299;50.820;4.548;2024-03-08T09:59:17;7.30;99.90
11583;DHT22;34299;50.820;4.548;2024-03-08T10:02:13;7.40;99.90
11583;DHT22;34299;50.820;4.548;2024-03-08T10:04:43;7.60;99.90
11583;DHT22;34299;50.820;4.548;2024-03-08T10:07:12;7.80;99.90
11583;DHT22;34299;50.820;4.548;2024-03-08T10:09:39;8.00;99.90
11583;DHT22;34299;50.820;4.548;2024-03-08T10:12:08;7.90;99.90
11583;DHT22;34299;50.820;4.548;2024-03-08T10:14:40;8.10;99.90
11583;DHT22;34299;50.820;4.548;2024-03-08T10:17:08;8.10;99.90
11583;DHT22;34299;50.820;4.548;2024-03-08T10:19:35;8.30;99.90
11583;DHT22;34299;50.820;4.548;2024-03-08T10:22:04;8.30;99.90
11583;DHT22;34299;50.820;4.548;2024-03-08T10:24:33;8.60;99.90
11583;DHT22;34299;50.820;4.548;2024-03-08T10:27:01;8.90;99.90
11583;DHT22;34299;50.820;4.548;2024-03-08T10:29:31;8.90;99.90
11583;DHT22;34299;50.820;4.548;2024-03-08T10:31:58;9.00;99.90
11583;DHT22;34299;50.820;4.548;2024-03-08T10:34:25;9.10;99.90
11583;DHT22;34299;50.820;4.548;2024-03-08T10:36:52;9.40;99.90
11583;DHT22;34299;50.820;4.548;2024-03-08T10:39:23;9.30;99.90
11583;DHT22;34299;50.820;4.548;2024-03-08T10:41:54;9.80;99.90
11583;DHT22;34299;50.820;4.548;2024-03-08T10:44:38;9.40;99.90
11583;DHT22;34299;50.820;4.548;2024-03-08T10:47:14;9.70;99.90
11583;DHT22;34299;50.820;4.548;2024-03-08T10:49:51;10.00;99.90
11583;DHT22;34299;50.820;4.548;2024-03-08T10:52:19;10.30;99.90
11583;DHT22;34299;50.820;4.548;2024-03-08T10:54:49;10.60;99.90
11583;DHT22;34299;50.820;4.548;2024-03-08T10:57:18;10.80;99.90
11583;DHT22;34299;50.820;4.548;2024-03-08T10:59:47;11.10;99.90
11583;DHT22;34299;50.820;4.548;2024-03-08T11:02:16;11.30;99.90
11583;DHT22;34299;50.820;4.548;2024-03-08T11:04:46;11.90;99.90
11583;DHT22;34299;50.820;4.548;2024-03-08T11:07:15;12.00;99.90
11583;DHT22;34299;50.820;4.548;2024-03-08T11:09:47;12.20;99.90
11583;DHT22;34299;50.820;4.548;2024-03-08T11:12:25;12.30;99.90
11583;DHT22;34299;50.820;4.548;2024-03-08T11:14:55;12.80;99.90
11583;DHT22;34299;50.820;4.548;2024-03-08T11:17:40;12.80;99.90
11583;DHT22;34299;50.820;4.548;2024-03-08T11:20:11;12.90;99.90
11583;DHT22;34299;50.820;4.548;2024-03-08T11:22:47;13.10;99.90
11583;DHT22;34299;50.820;4.548;2024-03-08T11:25:30;13.50;99.90
11583;DHT22;34299;50.820;4.548;2024-03-08T11:28:13;13.20;99.90
11583;DHT22;34299;50.820;4.548;2024-03-08T11:30:46;13.00;99.90
11583;DHT22;34299;50.820;4.548;2024-03-08T11:33:17;12.30;99.90
11583;DHT22;34299;50.820;4.548;2024-03-08T11:35:44;12.60;99.90
11583;DHT22;34299;50.820;4.548;2024-03-08T11:38:12;13.70;99.90
11583;DHT22;34299;50.820;4.548;2024-03-08T11:40:40;14.90;99.90
11583;DHT22;34299;50.820;4.548;2024-03-08T11:43:09;14.00;99.90
11583;DHT22;34299;50.820;4.548;2024-03-08T11:45:36;14.30;99.90
11583;DHT22;34299;50.820;4.548;2024-03-08T11:48:04;14.70;99.90
11583;DHT22;34299;50.820;4.548;2024-03-08T11:50:30;14.70;99.90
11583;DHT22;34299;50.820;4.548;2024-03-08T11:53:02;14.20;99.90
11583;DHT22;34299;50.820;4.548;2024-03-08T11:55:30;14.70;99.90
11583;DHT22;34299;50.820;4.548;2024-03-08T11:58:02;14.50;99.90
11583;DHT22;34299;50.820;4.548;2024-03-08T12:00:31;14.00;99.90
11583;DHT22;34299;50.820;4.548;2024-03-08T12:03:04;13.80;99.90
11583;DHT22;34299;50.820;4.548;2024-03-08T12:05:32;14.60;99.90
11583;DHT22;34299;50.820;4.548;2024-03-08T12:08:00;14.70;99.90
11583;DHT22;34299;50.820;4.548;2024-03-08T12:10:27;14.50;99.90
11583;DHT22;34299;50.820;4.548;2024-03-08T12:12:57;13.90;99.90
11583;DHT22;34299;50.820;4.548;2024-03-08T12:15:26;12.90;99.90
11583;DHT22;34299;50.820;4.548;2024-03-08T12:17:56;13.20;99.90
11583;DHT22;34299;50.820;4.548;2024-03-08T12:20:24;14.20;99.90
11583;DHT22;34299;50.820;4.548;2024-03-08T12:22:53;13.70;99.90
11583;DHT22;34299;50.820;4.548;2024-03-08T12:25:25;15.00;99.90
11583;DHT22;34299;50.820;4.548;2024-03-08T12:27:52;15.90;99.90
11583;DHT22;34299;50.820;4.548;2024-03-08T12:30:23;15.50;99.90
11583;DHT22;34299;50.820;4.548;2024-03-08T12:32:55;15.20;99.90
11583;DHT22;34299;50.820;4.548;2024-03-08T12:35:25;15.80;99.90
11583;DHT22;34299;50.820;4.548;2024-03-08T12:37:54;15.80;99.90
11583;DHT22;34299;50.820;4.548;2024-03-08T12:40:32;15.10;99.90
11583;DHT22;34299;50.820;4.548;2024-03-08T12:43:00;15.50;99.90
11583;DHT22;34299;50.820;4.548;2024-03-08T12:45:28;15.40;99.90
11583;DHT22;34299;50.820;4.548;2024-03-08T12:47:55;14.70;99.90
11583;DHT22;34299;50.820;4.548;2024-03-08T12:50:24;14.90;99.90
11583;DHT22;34299;50.820;4.548;2024-03-08T12:52:52;14.70;99.90
11583;DHT22;34299;50.820;4.548;2024-03-08T12:55:19;15.00;99.90
11583;DHT22;34299;50.820;4.548;2024-03-08T12:57:46;15.10;99.90
11583;DHT22;34299;50.820;4.548;2024-03-08T13:00:15;15.10;99.90
11583;DHT22;34299;50.820;4.548;2024-03-08T13:02:45;14.90;99.90
11583;DHT22;34299;50.820;4.548;2024-03-08T13:05:13;15.40;99.90
11583;DHT22;34299;50.820;4.548;2024-03-08T13:07:42;16.10;99.90
11583;DHT22;34299;50.820;4.548;2024-03-08T13:10:12;16.30;99.90
11583;DHT22;34299;50.820;4.548;2024-03-08T13:12:40;16.80;99.90
11583;DHT22;34299;50.820;4.548;2024-03-08T13:15:08;16.80;99.90
11583;DHT22;34299;50.820;4.548;2024-03-08T13:17:37;16.30;99.90
11583;DHT22;34299;50.820;4.548;2024-03-08T13:20:07;15.90;99.90
11583;DHT22;34299;50.820;4.548;2024-03-08T13:22:35;15.50;99.90
11583;DHT22;34299;50.820;4.548;2024-03-08T13:25:03;16.50;99.90
11583;DHT22;34299;50.820;4.548;2024-03-08T13:27:31;16.60;99.90
11583;DHT22;34299;50.820;4.548;2024-03-08T13:29:58;17.30;99.90
11583;DHT22;34299;50.820;4.548;2024-03-08T13:32:25;17.10;99.90
11583;DHT22;34299;50.820;4.548;2024-03-08T13:34:52;17.00;99.90
11583;DHT22;34299;50.820;4.548;2024-03-08T13:37:21;16.00;99.90
11583;DHT22;34299;50.820;4.548;2024-03-08T13:39:48;16.20;99.90
11583;DHT22;34299;50.820;4.548;2024-03-08T13:42:16;17.20;99.90
11583;DHT22;34299;50.820;4.548;2024-03-08T13:44:45;16.50;99.90
11583;DHT22;34299;50.820;4.548;2024-03-08T13:47:13;16.20;99.90
11583;DHT22;34299;50.820;4.548;2024-03-08T13:49:40;17.10;99.90
11583;DHT22;34299;50.820;4.548;2024-03-08T13:52:09;17.90;99.90
11583;DHT22;34299;50.820;4.548;2024-03-08T13:54:36;17.50;99.90
11583;DHT22;34299;50.820;4.548;2024-03-08T13:57:04;17.50;99.90
11583;DHT22;34299;50.820;4.548;2024-03-08T13:59:34;17.60;99.90
11583;DHT22;34299;50.820;4.548;2024-03-08T14:02:03;17.30;99.90
11583;DHT22;34299;50.820;4.548;2024-03-08T14:04:30;17.50;99.90
11583;DHT22;34299;50.820;4.548;2024-03-08T14:06:57;17.90;99.90
11583;DHT22;34299;50.820;4.548;2024-03-08T14:09:29;17.50;99.90
11583;DHT22;34299;50.820;4.548;2024-03-08T14:11:56;18.00;99.90
11583;DHT22;34299;50.820;4.548;2024-03-08T14:14:24;17.50;99.90
11583;DHT22;34299;50.820;4.548;2024-03-08T14:16:52;17.10;99.90
11583;DHT22;34299;50.820;4.548;2024-03-08T14:19:21;16.40;99.90
11583;DHT22;34299;50.820;4.548;2024-03-08T14:21:48;15.60;99.90
11583;DHT22;34299;50.820;4.548;2024-03-08T14:24:17;15.90;99.90
11583;DHT22;34299;50.820;4.548;2024-03-08T14:26:44;17.10;99.90
11583;DHT22;34299;50.820;4.548;2024-03-08T14:29:12;17.80;99.90
11583;DHT22;34299;50.820;4.548;2024-03-08T14:31:39;18.20;99.90
11583;DHT22;34299;50.820;4.548;2024-03-08T14:34:08;18.70;99.90
11583;DHT22;34299;50.820;4.548;2024-03-08T14:36:35;19.00;99.90
11583;DHT22;34299;50.820;4.548;2024-03-08T14:39:03;19.10;99.90
11583;DHT22;34299;50.820;4.548;2024-03-08T14:41:30;17.80;99.90
11583;DHT22;34299;50.820;4.548;2024-03-08T14:43:57;18.40;99.90
11583;DHT22;34299;50.820;4.548;2024-03-08T14:46:25;18.50;99.90
11583;DHT22;34299;50.820;4.548;2024-03-08T14:48:53;18.60;99.90
11583;DHT22;34299;50.820;4.548;2024-03-08T14:51:21;19.80;99.90
11583;DHT22;34299;50.820;4.548;2024-03-08T14:53:50;20.00;99.90
11583;DHT22;34299;50.820;4.548;2024-03-08T14:56:17;22.00;99.90
11583;DHT22;34299;50.820;4.548;2024-03-08T14:58:45;22.80;99.90
11583;DHT22;34299;50.820;4.548;2024-03-08T15:01:15;19.70;99.90
11583;DHT22;34299;50.820;4.548;2024-03-08T15:03:42;20.30;99.90
11583;DHT22;34299;50.820;4.548;2024-03-08T15:06:09;21.20;99.90
11583;DHT22;34299;50.820;4.548;2024-03-08T15:08:39;21.60;99.90
11583;DHT22;34299;50.820;4.548;2024-03-08T15:11:06;21.60;99.90
11583;DHT22;34299;50.820;4.548;2024-03-08T15:13:34;23.60;99.90
11583;DHT22;34299;50.820;4.548;2024-03-08T15:16:07;22.20;99.90
11583;DHT22;34299;50.820;4.548;2024-03-08T15:18:40;22.00;99.90
11583;DHT22;34299;50.820;4.548;2024-03-08T15:21:12;22.50;99.90
11583;DHT22;34299;50.820;4.548;2024-03-08T15:23:45;23.80;99.60
11583;DHT22;34299;50.820;4.548;2024-03-08T15:26:16;25.40;99.20
11583;DHT22;34299;50.820;4.548;2024-03-08T15:28:43;24.30;97.90
11583;DHT22;34299;50.820;4.548;2024-03-08T15:31:11;25.10;98.20
11583;DHT22;34299;50.820;4.548;2024-03-08T15:33:39;24.70;97.60
11583;DHT22;34299;50.820;4.548;2024-03-08T15:36:10;23.30;97.10
11583;DHT22;34299;50.820;4.548;2024-03-08T15:38:40;22.20;98.30
11583;DHT22;34299;50.820;4.548;2024-03-08T15:41:10;22.50;98.50
11583;DHT22;34299;50.820;4.548;2024-03-08T15:43:38;22.50;98.50
11583;DHT22;34299;50.820;4.548;2024-03-08T15:46:05;22.50;98.80
11583;DHT22;34299;50.820;4.548;2024-03-08T15:48:33;23.40;98.20
11583;DHT22;34299;50.820;4.548;2024-03-08T15:51:03;22.50;98.60